createdAt,value
2022-09-29T00:12:51.989Z,91.04
2022-09-29T00:27:53.941Z,90.72
2022-09-29T00:42:55.852Z,90.49
2022-09-29T00:58:08.430Z,90.87
2022-09-29T01:13:10.690Z,91.05
2022-09-29T01:28:21.915Z,91.95
2022-09-29T01:43:47.303Z,91.65
2022-09-29T01:58:54.715Z,91.48
2022-09-29T02:14:08.383Z,91.71
2022-09-29T02:29:10.645Z,91.54
2022-09-29T02:44:50.190Z,90.99
2022-09-29T03:00:11.561Z,90.93
2022-09-29T03:15:13.881Z,91.37
2022-09-29T03:30:15.989Z,91.01
2022-09-29T03:45:17.986Z,90.96
2022-09-29T04:00:19.948Z,90.79
2022-09-29T04:15:22.090Z,91.02
2022-09-29T04:30:24.012Z,91.18
2022-09-29T04:45:26.030Z,90.78
2022-09-29T05:00:28.011Z,90.53
2022-09-29T05:15:30.011Z,90.55
2022-09-29T05:30:32.158Z,90.36
2022-09-29T05:45:34.321Z,90.14
2022-09-29T06:00:36.349Z,90.12
2022-09-29T06:15:38.298Z,89.88
2022-09-29T06:30:40.194Z,89.55
2022-09-29T06:45:42.403Z,88.61
2022-09-29T07:00:45.997Z,88.01
2022-09-29T07:15:50.400Z,87.81
2022-09-29T07:31:12.967Z,86.35
2022-09-29T07:46:16.866Z,85.38
2022-09-29T08:01:20.365Z,85.26
2022-09-29T08:16:22.858Z,85.47
2022-09-29T08:31:24.964Z,85.21
2022-09-29T08:46:36.377Z,84.88
2022-09-29T09:01:53.688Z,84.37
2022-09-29T09:16:58.388Z,84.19
2022-09-29T09:32:07.193Z,82.72
2022-09-29T09:47:21.130Z,79.95
2022-09-29T10:02:24.581Z,78.41
2022-09-29T10:17:31.886Z,77.86
2022-09-29T10:32:37.960Z,76.85
2022-09-29T10:47:41.432Z,76.16
2022-09-29T11:02:44.202Z,75.46
2022-09-29T11:17:50.850Z,75.19
2022-09-29T11:33:05.442Z,73.14
2022-09-29T11:48:31.004Z,75.71
2022-09-29T12:03:59.109Z,75.32
2022-09-29T12:19:08.861Z,73.50
2022-09-29T12:34:33.181Z,70.21
2022-09-29T12:50:09.861Z,67.31
2022-09-29T13:05:26.641Z,69.08
2022-09-29T13:20:45.740Z,69.66
2022-09-29T13:35:49.412Z,70.79
2022-09-29T13:50:53.309Z,70.70
2022-09-29T14:05:57.831Z,70.52
2022-09-29T14:21:11.819Z,71.44
2022-09-29T14:36:20.834Z,71.88
2022-09-29T14:51:49.771Z,72.63
2022-09-29T15:06:52.530Z,72.80
2022-09-29T15:22:33.189Z,75.12
2022-09-29T15:37:50.391Z,76.93
2022-09-29T15:52:52.594Z,78.68
2022-09-29T16:08:23.318Z,81.03
2022-09-29T16:23:25.210Z,83.01
2022-09-29T16:38:39.106Z,84.28
2022-09-29T16:53:41.261Z,85.37
2022-09-29T17:08:43.179Z,86.13
2022-09-29T17:23:45.171Z,86.79
2022-09-29T17:38:49.152Z,87.15
2022-09-29T17:53:51.179Z,87.40
2022-09-29T18:08:54.841Z,87.59
2022-09-29T18:23:57.822Z,87.82
2022-09-29T18:38:59.819Z,88.23
2022-09-29T18:54:02.521Z,88.02
2022-09-29T19:09:04.672Z,88.22
2022-09-29T19:24:08.152Z,88.12
2022-09-29T19:39:12.241Z,88.60
2022-09-29T19:54:19.383Z,88.56
2022-09-29T20:09:21.726Z,88.54
2022-09-29T20:24:27.503Z,88.55
2022-09-29T20:39:29.639Z,88.90
2022-09-29T20:54:31.759Z,88.85
2022-09-29T21:09:33.748Z,88.68
2022-09-29T21:24:39.362Z,89.03
2022-09-29T21:39:42.376Z,88.53
2022-09-29T21:54:44.481Z,89.18
2022-09-29T22:09:46.467Z,89.13
2022-09-29T22:24:49.281Z,89.10
2022-09-29T22:39:51.220Z,88.97
2022-09-29T22:54:53.139Z,88.88
2022-09-29T23:09:55.099Z,88.73
2022-09-29T23:24:57.282Z,88.86
2022-09-29T23:39:59.221Z,89.27
2022-09-29T23:55:01.240Z,88.91
